sensor_id;sensor_type;location;lat;lon;timestamp;P1;durP1;ratioP1;P2;durP2;ratioP2
20042;SDS011;10182;52.896;6.496;2022-09-25T00:01:18;7.40;;;3.40;;
20042;SDS011;10182;52.896;6.496;2022-09-25T00:06:21;6.07;;;3.97;;
20042;SDS011;10182;52.896;6.496;2022-09-25T00:11:25;7.27;;;4.20;;
20042;SDS011;10182;52.896;6.496;2022-09-25T00:16:28;12.60;;;4.97;;
20042;SDS011;10182;52.896;6.496;2022-09-25T00:21:32;8.13;;;4.70;;
20042;SDS011;10182;52.896;6.496;2022-09-25T00:26:37;7.30;;;4.10;;
20042;SDS011;10182;52.896;6.496;2022-09-25T00:31:40;10.63;;;5.50;;
20042;SDS011;10182;52.896;6.496;2022-09-25T00:36:42;10.97;;;5.33;;
20042;SDS011;10182;52.896;6.496;2022-09-25T00:41:45;9.97;;;5.67;;
20042;SDS011;10182;52.896;6.496;2022-09-25T00:46:46;8.23;;;5.20;;
20042;SDS011;10182;52.896;6.496;2022-09-25T00:51:49;9.97;;;5.27;;
20042;SDS011;10182;52.896;6.496;2022-09-25T00:56:55;9.60;;;5.03;;
20042;SDS011;10182;52.896;6.496;2022-09-25T01:01:58;10.10;;;4.30;;
20042;SDS011;10182;52.896;6.496;2022-09-25T01:07:00;12.67;;;5.33;;
20042;SDS011;10182;52.896;6.496;2022-09-25T01:12:03;9.20;;;4.10;;
20042;SDS011;10182;52.896;6.496;2022-09-25T01:17:05;5.87;;;4.43;;
20042;SDS011;10182;52.896;6.496;2022-09-25T01:22:14;8.33;;;4.23;;
20042;SDS011;10182;52.896;6.496;2022-09-25T01:27:38;9.33;;;4.80;;
20042;SDS011;10182;52.896;6.496;2022-09-25T01:32:51;13.57;;;4.43;;
20042;SDS011;10182;52.896;6.496;2022-09-25T01:38:01;8.50;;;4.30;;
20042;SDS011;10182;52.896;6.496;2022-09-25T01:43:10;10.00;;;4.40;;
20042;SDS011;10182;52.896;6.496;2022-09-25T01:48:18;10.03;;;4.67;;
20042;SDS011;10182;52.896;6.496;2022-09-25T01:53:28;6.00;;;4.53;;
20042;SDS011;10182;52.896;6.496;2022-09-25T01:58:35;8.67;;;4.07;;
20042;SDS011;10182;52.896;6.496;2022-09-25T02:03:45;11.93;;;4.77;;
20042;SDS011;10182;52.896;6.496;2022-09-25T02:08:51;10.47;;;4.20;;
20042;SDS011;10182;52.896;6.496;2022-09-25T02:13:57;6.17;;;3.63;;
20042;SDS011;10182;52.896;6.496;2022-09-25T02:19:06;4.60;;;3.03;;
20042;SDS011;10182;52.896;6.496;2022-09-25T02:24:25;5.33;;;3.63;;
20042;SDS011;10182;52.896;6.496;2022-09-25T02:29:34;10.60;;;4.17;;
20042;SDS011;10182;52.896;6.496;2022-09-25T02:34:37;10.33;;;5.43;;
20042;SDS011;10182;52.896;6.496;2022-09-25T02:39:39;6.63;;;3.80;;
20042;SDS011;10182;52.896;6.496;2022-09-25T02:44:47;6.17;;;4.03;;
20042;SDS011;10182;52.896;6.496;2022-09-25T02:50:02;9.90;;;4.00;;
20042;SDS011;10182;52.896;6.496;2022-09-25T02:55:14;16.57;;;4.77;;
20042;SDS011;10182;52.896;6.496;2022-09-25T03:00:22;8.87;;;4.03;;
20042;SDS011;10182;52.896;6.496;2022-09-25T03:05:25;11.37;;;4.40;;
20042;SDS011;10182;52.896;6.496;2022-09-25T03:10:27;8.53;;;4.60;;
20042;SDS011;10182;52.896;6.496;2022-09-25T03:15:31;9.03;;;4.10;;
20042;SDS011;10182;52.896;6.496;2022-09-25T03:20:35;8.50;;;4.40;;
20042;SDS011;10182;52.896;6.496;2022-09-25T03:25:37;11.43;;;5.10;;
20042;SDS011;10182;52.896;6.496;2022-09-25T03:30:39;9.33;;;4.27;;
20042;SDS011;10182;52.896;6.496;2022-09-25T03:35:42;9.43;;;4.70;;
20042;SDS011;10182;52.896;6.496;2022-09-25T03:40:44;9.90;;;4.83;;
20042;SDS011;10182;52.896;6.496;2022-09-25T03:45:46;7.33;;;5.10;;
20042;SDS011;10182;52.896;6.496;2022-09-25T03:50:49;10.10;;;4.50;;
20042;SDS011;10182;52.896;6.496;2022-09-25T03:55:50;6.67;;;3.50;;
20042;SDS011;10182;52.896;6.496;2022-09-25T04:00:52;6.30;;;3.80;;
20042;SDS011;10182;52.896;6.496;2022-09-25T04:05:58;7.97;;;3.77;;
20042;SDS011;10182;52.896;6.496;2022-09-25T04:11:00;6.57;;;3.77;;
20042;SDS011;10182;52.896;6.496;2022-09-25T04:16:03;9.53;;;3.67;;
20042;SDS011;10182;52.896;6.496;2022-09-25T04:21:09;11.70;;;4.23;;
20042;SDS011;10182;52.896;6.496;2022-09-25T04:26:12;9.17;;;3.90;;
20042;SDS011;10182;52.896;6.496;2022-09-25T04:31:13;14.67;;;4.33;;
20042;SDS011;10182;52.896;6.496;2022-09-25T04:36:16;11.23;;;5.27;;
20042;SDS011;10182;52.896;6.496;2022-09-25T04:41:18;7.70;;;4.87;;
20042;SDS011;10182;52.896;6.496;2022-09-25T04:46:20;6.07;;;4.00;;
20042;SDS011;10182;52.896;6.496;2022-09-25T04:51:23;6.70;;;4.50;;
20042;SDS011;10182;52.896;6.496;2022-09-25T04:56:24;5.43;;;3.63;;
20042;SDS011;10182;52.896;6.496;2022-09-25T05:01:26;6.30;;;3.97;;
20042;SDS011;10182;52.896;6.496;2022-09-25T05:06:29;8.53;;;3.77;;
20042;SDS011;10182;52.896;6.496;2022-09-25T05:11:31;11.03;;;3.73;;
20042;SDS011;10182;52.896;6.496;2022-09-25T05:16:32;7.63;;;4.00;;
20042;SDS011;10182;52.896;6.496;2022-09-25T05:21:35;7.07;;;4.13;;
20042;SDS011;10182;52.896;6.496;2022-09-25T05:26:37;8.43;;;4.87;;
20042;SDS011;10182;52.896;6.496;2022-09-25T05:31:40;5.77;;;4.07;;
20042;SDS011;10182;52.896;6.496;2022-09-25T05:36:47;5.90;;;3.70;;
20042;SDS011;10182;52.896;6.496;2022-09-25T05:41:48;6.87;;;3.73;;
20042;SDS011;10182;52.896;6.496;2022-09-25T05:46:50;5.97;;;3.47;;
20042;SDS011;10182;52.896;6.496;2022-09-25T05:51:53;8.40;;;3.73;;
20042;SDS011;10182;52.896;6.496;2022-09-25T05:56:54;11.00;;;4.10;;
20042;SDS011;10182;52.896;6.496;2022-09-25T06:01:56;7.93;;;3.77;;
20042;SDS011;10182;52.896;6.496;2022-09-25T06:06:59;6.40;;;3.70;;
20042;SDS011;10182;52.896;6.496;2022-09-25T06:12:01;5.67;;;4.23;;
20042;SDS011;10182;52.896;6.496;2022-09-25T06:17:03;6.10;;;4.13;;
20042;SDS011;10182;52.896;6.496;2022-09-25T06:22:06;6.67;;;3.37;;
20042;SDS011;10182;52.896;6.496;2022-09-25T06:27:08;5.93;;;3.13;;
20042;SDS011;10182;52.896;6.496;2022-09-25T06:32:09;8.27;;;3.37;;
20042;SDS011;10182;52.896;6.496;2022-09-25T06:37:12;7.87;;;3.70;;
20042;SDS011;10182;52.896;6.496;2022-09-25T06:42:14;8.33;;;3.40;;
20042;SDS011;10182;52.896;6.496;2022-09-25T06:47:16;5.77;;;3.57;;
20042;SDS011;10182;52.896;6.496;2022-09-25T06:52:19;7.43;;;3.13;;
20042;SDS011;10182;52.896;6.496;2022-09-25T06:57:21;7.07;;;3.17;;
20042;SDS011;10182;52.896;6.496;2022-09-25T07:02:22;7.67;;;3.27;;
20042;SDS011;10182;52.896;6.496;2022-09-25T07:07:43;7.70;;;2.80;;
20042;SDS011;10182;52.896;6.496;2022-09-25T07:12:45;4.57;;;3.10;;
20042;SDS011;10182;52.896;6.496;2022-09-25T07:17:47;8.70;;;2.77;;
20042;SDS011;10182;52.896;6.496;2022-09-25T07:22:50;5.83;;;2.60;;
20042;SDS011;10182;52.896;6.496;2022-09-25T07:27:53;9.40;;;2.67;;
20042;SDS011;10182;52.896;6.496;2022-09-25T07:32:55;6.73;;;2.40;;
20042;SDS011;10182;52.896;6.496;2022-09-25T07:37:58;8.23;;;2.13;;
20042;SDS011;10182;52.896;6.496;2022-09-25T07:43:00;6.93;;;2.00;;
20042;SDS011;10182;52.896;6.496;2022-09-25T07:48:03;6.00;;;2.00;;
20042;SDS011;10182;52.896;6.496;2022-09-25T07:53:06;4.33;;;1.70;;
20042;SDS011;10182;52.896;6.496;2022-09-25T07:58:08;8.67;;;2.40;;
20042;SDS011;10182;52.896;6.496;2022-09-25T08:03:09;5.33;;;1.63;;
20042;SDS011;10182;52.896;6.496;2022-09-25T08:08:13;7.73;;;1.60;;
20042;SDS011;10182;52.896;6.496;2022-09-25T08:13:15;11.70;;;1.90;;
20042;SDS011;10182;52.896;6.496;2022-09-25T08:18:18;2.67;;;1.33;;
20042;SDS011;10182;52.896;6.496;2022-09-25T08:23:21;5.20;;;1.40;;
20042;SDS011;10182;52.896;6.496;2022-09-25T08:28:23;3.77;;;1.33;;
20042;SDS011;10182;52.896;6.496;2022-09-25T08:33:26;8.13;;;1.83;;
20042;SDS011;10182;52.896;6.496;2022-09-25T08:38:29;3.67;;;1.00;;
20042;SDS011;10182;52.896;6.496;2022-09-25T08:43:33;5.43;;;1.33;;
20042;SDS011;10182;52.896;6.496;2022-09-25T08:48:39;3.90;;;1.17;;
20042;SDS011;10182;52.896;6.496;2022-09-25T08:54:04;3.40;;;0.80;;
20042;SDS011;10182;52.896;6.496;2022-09-25T08:59:09;6.00;;;1.40;;
20042;SDS011;10182;52.896;6.496;2022-09-25T09:04:28;3.73;;;1.10;;
20042;SDS011;10182;52.896;6.496;2022-09-25T09:09:34;5.20;;;1.10;;
20042;SDS011;10182;52.896;6.496;2022-09-25T09:14:42;6.17;;;1.10;;
20042;SDS011;10182;52.896;6.496;2022-09-25T09:19:47;5.93;;;1.47;;
20042;SDS011;10182;52.896;6.496;2022-09-25T09:24:54;1.73;;;0.70;;
20042;SDS011;10182;52.896;6.496;2022-09-25T09:30:08;2.80;;;0.57;;
20042;SDS011;10182;52.896;6.496;2022-09-25T09:35:17;1.30;;;0.90;;
20042;SDS011;10182;52.896;6.496;2022-09-25T09:40:31;3.53;;;0.83;;
20042;SDS011;10182;52.896;6.496;2022-09-25T09:45:52;2.43;;;1.00;;
20042;SDS011;10182;52.896;6.496;2022-09-25T09:50:59;4.80;;;1.10;;
20042;SDS011;10182;52.896;6.496;2022-09-25T09:56:09;2.00;;;0.70;;
20042;SDS011;10182;52.896;6.496;2022-09-25T10:01:14;3.10;;;1.10;;
20042;SDS011;10182;52.896;6.496;2022-09-25T10:06:19;2.30;;;0.90;;
20042;SDS011;10182;52.896;6.496;2022-09-25T10:11:29;3.30;;;0.57;;
20042;SDS011;10182;52.896;6.496;2022-09-25T10:16:32;5.77;;;1.23;;
20042;SDS011;10182;52.896;6.496;2022-09-25T10:21:36;3.10;;;0.87;;
20042;SDS011;10182;52.896;6.496;2022-09-25T10:26:42;2.27;;;0.80;;
20042;SDS011;10182;52.896;6.496;2022-09-25T10:31:44;4.23;;;0.83;;
20042;SDS011;10182;52.896;6.496;2022-09-25T10:36:47;4.90;;;1.67;;
20042;SDS011;10182;52.896;6.496;2022-09-25T10:41:52;6.10;;;0.93;;
20042;SDS011;10182;52.896;6.496;2022-09-25T10:46:54;4.73;;;1.13;;
20042;SDS011;10182;52.896;6.496;2022-09-25T10:52:14;2.07;;;0.97;;
20042;SDS011;10182;52.896;6.496;2022-09-25T10:57:25;2.53;;;1.03;;
20042;SDS011;10182;52.896;6.496;2022-09-25T11:02:34;2.73;;;0.90;;
20042;SDS011;10182;52.896;6.496;2022-09-25T11:07:44;3.60;;;0.80;;
20042;SDS011;10182;52.896;6.496;2022-09-25T11:12:55;3.57;;;0.93;;
20042;SDS011;10182;52.896;6.496;2022-09-25T11:17:58;2.27;;;0.90;;
20042;SDS011;10182;52.896;6.496;2022-09-25T11:23:07;2.07;;;1.00;;
20042;SDS011;10182;52.896;6.496;2022-09-25T11:28:29;5.53;;;1.37;;
20042;SDS011;10182;52.896;6.496;2022-09-25T11:33:37;5.10;;;1.30;;
20042;SDS011;10182;52.896;6.496;2022-09-25T11:38:45;5.80;;;1.77;;
20042;SDS011;10182;52.896;6.496;2022-09-25T11:44:18;3.10;;;1.23;;
20042;SDS011;10182;52.896;6.496;2022-09-25T11:49:27;3.47;;;1.10;;
20042;SDS011;10182;52.896;6.496;2022-09-25T11:54:31;5.90;;;1.87;;
20042;SDS011;10182;52.896;6.496;2022-09-25T11:59:45;2.30;;;1.17;;
20042;SDS011;10182;52.896;6.496;2022-09-25T12:10:27;3.10;;;1.20;;
20042;SDS011;10182;52.896;6.496;2022-09-25T12:15:40;3.33;;;0.80;;
20042;SDS011;10182;52.896;6.496;2022-09-25T12:20:51;4.93;;;1.10;;
20042;SDS011;10182;52.896;6.496;2022-09-25T12:26:02;2.73;;;1.00;;
20042;SDS011;10182;52.896;6.496;2022-09-25T12:31:17;4.73;;;1.00;;
20042;SDS011;10182;52.896;6.496;2022-09-25T12:41:52;1.63;;;0.40;;
20042;SDS011;10182;52.896;6.496;2022-09-25T12:47:08;2.30;;;0.70;;
20042;SDS011;10182;52.896;6.496;2022-09-25T12:52:13;6.73;;;0.93;;
20042;SDS011;10182;52.896;6.496;2022-09-25T12:57:22;1.87;;;0.80;;
20042;SDS011;10182;52.896;6.496;2022-09-25T13:02:30;1.93;;;0.60;;
20042;SDS011;10182;52.896;6.496;2022-09-25T13:07:40;2.73;;;0.67;;
20042;SDS011;10182;52.896;6.496;2022-09-25T13:12:46;1.77;;;0.67;;
20042;SDS011;10182;52.896;6.496;2022-09-25T13:17:51;2.97;;;0.97;;
20042;SDS011;10182;52.896;6.496;2022-09-25T13:22:54;6.10;;;0.70;;
20042;SDS011;10182;52.896;6.496;2022-09-25T13:28:04;1.77;;;1.00;;
20042;SDS011;10182;52.896;6.496;2022-09-25T13:33:14;1.23;;;0.70;;
20042;SDS011;10182;52.896;6.496;2022-09-25T13:38:21;1.33;;;0.60;;
20042;SDS011;10182;52.896;6.496;2022-09-25T13:43:36;2.37;;;0.80;;
20042;SDS011;10182;52.896;6.496;2022-09-25T13:48:39;2.43;;;1.30;;
20042;SDS011;10182;52.896;6.496;2022-09-25T13:53:49;3.03;;;0.40;;
20042;SDS011;10182;52.896;6.496;2022-09-25T13:58:59;4.20;;;1.97;;
20042;SDS011;10182;52.896;6.496;2022-09-25T14:04:24;3.83;;;1.90;;
20042;SDS011;10182;52.896;6.496;2022-09-25T14:09:30;2.60;;;0.73;;
20042;SDS011;10182;52.896;6.496;2022-09-25T14:14:38;1.53;;;0.53;;
20042;SDS011;10182;52.896;6.496;2022-09-25T14:19:53;3.80;;;1.53;;
20042;SDS011;10182;52.896;6.496;2022-09-25T14:24:57;1.20;;;0.40;;
20042;SDS011;10182;52.896;6.496;2022-09-25T14:30:03;2.13;;;0.63;;
20042;SDS011;10182;52.896;6.496;2022-09-25T14:35:15;1.87;;;0.73;;
20042;SDS011;10182;52.896;6.496;2022-09-25T14:40:30;1.83;;;0.80;;
20042;SDS011;10182;52.896;6.496;2022-09-25T14:45:40;2.17;;;0.60;;
20042;SDS011;10182;52.896;6.496;2022-09-25T14:51:00;3.37;;;1.20;;
20042;SDS011;10182;52.896;6.496;2022-09-25T14:56:05;1.07;;;0.57;;
20042;SDS011;10182;52.896;6.496;2022-09-25T15:01:15;4.13;;;0.80;;
20042;SDS011;10182;52.896;6.496;2022-09-25T15:06:26;2.33;;;0.50;;
20042;SDS011;10182;52.896;6.496;2022-09-25T15:11:37;2.50;;;0.67;;
20042;SDS011;10182;52.896;6.496;2022-09-25T15:16:40;1.67;;;0.40;;
20042;SDS011;10182;52.896;6.496;2022-09-25T15:22:01;1.27;;;0.43;;
20042;SDS011;10182;52.896;6.496;2022-09-25T15:27:10;1.00;;;0.50;;
20042;SDS011;10182;52.896;6.496;2022-09-25T15:32:16;4.50;;;0.90;;
20042;SDS011;10182;52.896;6.496;2022-09-25T15:37:21;1.53;;;0.70;;
20042;SDS011;10182;52.896;6.496;2022-09-25T15:42:28;2.53;;;0.60;;
20042;SDS011;10182;52.896;6.496;2022-09-25T15:53:00;3.03;;;0.87;;
20042;SDS011;10182;52.896;6.496;2022-09-25T15:58:07;2.03;;;0.90;;
20042;SDS011;10182;52.896;6.496;2022-09-25T16:03:15;2.10;;;0.60;;
20042;SDS011;10182;52.896;6.496;2022-09-25T16:08:39;2.27;;;0.87;;
20042;SDS011;10182;52.896;6.496;2022-09-25T16:13:41;2.73;;;0.90;;
20042;SDS011;10182;52.896;6.496;2022-09-25T16:18:45;1.67;;;0.77;;
20042;SDS011;10182;52.896;6.496;2022-09-25T16:23:53;4.90;;;1.30;;
20042;SDS011;10182;52.896;6.496;2022-09-25T16:29:14;2.27;;;0.97;;
20042;SDS011;10182;52.896;6.496;2022-09-25T16:34:22;7.13;;;0.90;;
20042;SDS011;10182;52.896;6.496;2022-09-25T16:39:28;3.17;;;1.03;;
20042;SDS011;10182;52.896;6.496;2022-09-25T16:44:38;6.50;;;1.40;;
20042;SDS011;10182;52.896;6.496;2022-09-25T16:49:46;1.80;;;1.10;;
20042;SDS011;10182;52.896;6.496;2022-09-25T16:54:50;3.97;;;2.03;;
20042;SDS011;10182;52.896;6.496;2022-09-25T16:59:53;2.73;;;1.30;;
20042;SDS011;10182;52.896;6.496;2022-09-25T17:04:55;4.40;;;1.73;;
20042;SDS011;10182;52.896;6.496;2022-09-25T17:09:58;2.67;;;1.50;;
20042;SDS011;10182;52.896;6.496;2022-09-25T17:15:01;4.97;;;1.77;;
20042;SDS011;10182;52.896;6.496;2022-09-25T17:20:03;3.50;;;0.90;;
20042;SDS011;10182;52.896;6.496;2022-09-25T17:25:15;4.93;;;1.10;;
20042;SDS011;10182;52.896;6.496;2022-09-25T17:30:23;2.70;;;0.90;;
20042;SDS011;10182;52.896;6.496;2022-09-25T17:35:29;2.20;;;0.80;;
20042;SDS011;10182;52.896;6.496;2022-09-25T17:40:38;0.93;;;0.70;;
20042;SDS011;10182;52.896;6.496;2022-09-25T17:45:44;2.77;;;0.97;;
20042;SDS011;10182;52.896;6.496;2022-09-25T17:50:49;3.27;;;1.30;;
20042;SDS011;10182;52.896;6.496;2022-09-25T17:55:52;2.97;;;1.60;;
20042;SDS011;10182;52.896;6.496;2022-09-25T18:00:55;13.60;;;6.87;;
20042;SDS011;10182;52.896;6.496;2022-09-25T18:05:59;4.30;;;1.93;;
20042;SDS011;10182;52.896;6.496;2022-09-25T18:11:02;5.77;;;2.67;;
20042;SDS011;10182;52.896;6.496;2022-09-25T18:16:04;7.03;;;5.10;;
20042;SDS011;10182;52.896;6.496;2022-09-25T18:21:08;15.87;;;9.70;;
20042;SDS011;10182;52.896;6.496;2022-09-25T18:26:28;13.57;;;10.07;;
20042;SDS011;10182;52.896;6.496;2022-09-25T18:31:30;18.37;;;12.80;;
20042;SDS011;10182;52.896;6.496;2022-09-25T18:36:32;8.90;;;6.53;;
20042;SDS011;10182;52.896;6.496;2022-09-25T18:41:36;7.57;;;4.67;;
20042;SDS011;10182;52.896;6.496;2022-09-25T18:46:37;5.40;;;4.67;;
20042;SDS011;10182;52.896;6.496;2022-09-25T18:51:39;6.27;;;3.80;;
20042;SDS011;10182;52.896;6.496;2022-09-25T18:56:42;7.87;;;3.93;;
20042;SDS011;10182;52.896;6.496;2022-09-25T19:01:44;6.67;;;5.10;;
20042;SDS011;10182;52.896;6.496;2022-09-25T19:06:46;11.60;;;7.70;;
20042;SDS011;10182;52.896;6.496;2022-09-25T19:11:49;6.77;;;3.27;;
20042;SDS011;10182;52.896;6.496;2022-09-25T19:16:51;4.27;;;2.57;;
20042;SDS011;10182;52.896;6.496;2022-09-25T19:21:53;4.47;;;2.20;;
20042;SDS011;10182;52.896;6.496;2022-09-25T19:26:56;8.83;;;2.87;;
20042;SDS011;10182;52.896;6.496;2022-09-25T19:31:57;2.63;;;2.27;;
20042;SDS011;10182;52.896;6.496;2022-09-25T19:36:59;6.80;;;2.50;;
20042;SDS011;10182;52.896;6.496;2022-09-25T19:42:02;2.93;;;2.50;;
20042;SDS011;10182;52.896;6.496;2022-09-25T19:47:04;4.13;;;2.93;;
20042;SDS011;10182;52.896;6.496;2022-09-25T19:52:06;15.37;;;8.73;;
20042;SDS011;10182;52.896;6.496;2022-09-25T19:57:09;13.07;;;8.60;;
20042;SDS011;10182;52.896;6.496;2022-09-25T20:02:11;6.37;;;4.00;;
20042;SDS011;10182;52.896;6.496;2022-09-25T20:07:13;9.57;;;2.87;;
20042;SDS011;10182;52.896;6.496;2022-09-25T20:12:17;4.90;;;2.67;;
20042;SDS011;10182;52.896;6.496;2022-09-25T20:17:18;5.20;;;2.50;;
20042;SDS011;10182;52.896;6.496;2022-09-25T20:22:20;3.77;;;2.60;;
20042;SDS011;10182;52.896;6.496;2022-09-25T20:27:23;4.53;;;2.70;;
20042;SDS011;10182;52.896;6.496;2022-09-25T20:32:25;6.83;;;2.87;;
20042;SDS011;10182;52.896;6.496;2022-09-25T20:37:27;4.93;;;2.70;;
20042;SDS011;10182;52.896;6.496;2022-09-25T20:42:30;6.30;;;3.10;;
20042;SDS011;10182;52.896;6.496;2022-09-25T20:47:32;6.50;;;3.83;;
20042;SDS011;10182;52.896;6.496;2022-09-25T20:52:35;6.37;;;3.50;;
20042;SDS011;10182;52.896;6.496;2022-09-25T20:57:38;6.53;;;4.93;;
20042;SDS011;10182;52.896;6.496;2022-09-25T21:02:40;6.17;;;5.50;;
20042;SDS011;10182;52.896;6.496;2022-09-25T21:07:42;8.90;;;6.47;;
20042;SDS011;10182;52.896;6.496;2022-09-25T21:12:46;7.77;;;4.70;;
20042;SDS011;10182;52.896;6.496;2022-09-25T21:17:48;10.27;;;4.73;;
20042;SDS011;10182;52.896;6.496;2022-09-25T21:22:50;7.30;;;5.30;;
20042;SDS011;10182;52.896;6.496;2022-09-25T21:27:53;5.20;;;4.70;;
20042;SDS011;10182;52.896;6.496;2022-09-25T21:32:55;6.30;;;3.87;;
20042;SDS011;10182;52.896;6.496;2022-09-25T21:37:56;10.20;;;4.40;;
20042;SDS011;10182;52.896;6.496;2022-09-25T21:42:59;5.67;;;4.23;;
20042;SDS011;10182;52.896;6.496;2022-09-25T21:48:01;6.27;;;4.47;;
20042;SDS011;10182;52.896;6.496;2022-09-25T21:53:03;5.93;;;4.07;;
20042;SDS011;10182;52.896;6.496;2022-09-25T21:58:06;10.10;;;4.60;;
20042;SDS011;10182;52.896;6.496;2022-09-25T22:03:08;6.83;;;4.30;;
20042;SDS011;10182;52.896;6.496;2022-09-25T22:08:09;6.40;;;4.33;;
20042;SDS011;10182;52.896;6.496;2022-09-25T22:13:12;6.30;;;4.33;;
20042;SDS011;10182;52.896;6.496;2022-09-25T22:18:14;5.40;;;3.57;;
20042;SDS011;10182;52.896;6.496;2022-09-25T22:23:16;4.70;;;4.20;;
20042;SDS011;10182;52.896;6.496;2022-09-25T22:28:20;6.63;;;4.20;;
20042;SDS011;10182;52.896;6.496;2022-09-25T22:33:22;5.67;;;4.00;;
20042;SDS011;10182;52.896;6.496;2022-09-25T22:38:24;5.57;;;4.00;;
20042;SDS011;10182;52.896;6.496;2022-09-25T22:43:27;11.63;;;4.00;;
20042;SDS011;10182;52.896;6.496;2022-09-25T22:48:29;5.40;;;3.70;;
20042;SDS011;10182;52.896;6.496;2022-09-25T22:53:32;5.97;;;4.00;;
20042;SDS011;10182;52.896;6.496;2022-09-25T22:58:36;4.07;;;3.60;;
20042;SDS011;10182;52.896;6.496;2022-09-25T23:03:38;4.83;;;3.40;;
20042;SDS011;10182;52.896;6.496;2022-09-25T23:08:39;5.73;;;3.23;;
20042;SDS011;10182;52.896;6.496;2022-09-25T23:13:42;8.60;;;3.53;;
20042;SDS011;10182;52.896;6.496;2022-09-25T23:18:44;3.97;;;3.07;;
20042;SDS011;10182;52.896;6.496;2022-09-25T23:23:45;6.67;;;3.63;;
20042;SDS011;10182;52.896;6.496;2022-09-25T23:28:49;5.30;;;3.60;;
20042;SDS011;10182;52.896;6.496;2022-09-25T23:33:50;4.10;;;3.70;;
20042;SDS011;10182;52.896;6.496;2022-09-25T23:38:53;4.40;;;3.30;;
20042;SDS011;10182;52.896;6.496;2022-09-25T23:43:57;5.57;;;3.70;;
20042;SDS011;10182;52.896;6.496;2022-09-25T23:48:59;9.47;;;3.63;;
20042;SDS011;10182;52.896;6.496;2022-09-25T23:54:01;5.50;;;3.70;;
20042;SDS011;10182;52.896;6.496;2022-09-25T23:59:04;4.50;;;3.20;;
